Time;durP1;ratioP1;P1;durP2;ratioP2;P2;SDS_P1;SDS_P2;PMS_P1;PMS_P2;Temp;Humidity;BMP_temperature;BMP_pressure;BME280_temperature;BME280_humidity;BME280_pressure;Samples;Min_cycle;Max_cycle;Signal;HPM_P1;HPM_P2
2023/09/30 00:01:40;;;;;;;10.15;5.53;;;;;;;17.64;77.60;64827.59;5091736;28;20289;-53
2023/09/30 00:04:07;;;;;;;12.57;6.28;;;;;;;17.70;78.27;64831.66;5091555;28;20203;-51
2023/09/30 00:06:33;;;;;;;10.98;5.43;;;;;;;17.66;77.97;64824.72;5091414;28;20208;-52
2023/09/30 00:08:58;;;;;;;9.35;6.38;;;;;;;17.73;76.94;64836.97;5091512;28;20202;-51
2023/09/30 00:11:24;;;;;;;9.65;5.68;;;;;;;17.75;77.65;64837.19;5091301;28;20216;-52
2023/09/30 00:13:50;;;;;;;11.38;5.20;;;;;;;17.78;77.47;64843.03;5091349;28;20218;-51
2023/09/30 00:16:21;;;;;;;10.05;5.13;;;;;;;17.84;77.50;64847.09;5091274;28;20660;-52
2023/09/30 00:18:47;;;;;;;11.38;5.40;;;;;;;17.85;76.40;64848.22;5072941;28;20310;-52
2023/09/30 00:21:13;;;;;;;8.88;4.25;;;;;;;17.87;75.68;64852.41;5091144;28;20286;-52
2023/09/30 00:23:38;;;;;;;9.73;3.88;;;;;;;17.66;74.99;64827.25;5091148;28;20673;-51
2023/09/30 00:26:05;;;;;;;8.52;4.05;;;;;;;17.73;72.73;64831.88;5091197;28;20220;-55
2023/09/30 00:28:30;;;;;;;11.95;4.72;;;;;;;17.52;72.56;64811.84;5091072;28;20283;-55
2023/09/30 00:30:55;;;;;;;15.80;5.15;;;;;;;17.48;73.57;64807.41;5090818;28;20307;-60
2023/09/30 00:33:21;;;;;;;11.98;5.07;;;;;;;17.48;74.09;64809.94;5090215;28;20245;-58
2023/09/30 00:35:46;;;;;;;9.88;5.65;;;;;;;17.55;73.89;64815.16;5072760;28;20291;-52
2023/09/30 00:38:12;;;;;;;8.32;5.30;;;;;;;17.48;74.74;64807.41;5090723;28;20313;-52
2023/09/30 00:40:38;;;;;;;8.93;5.32;;;;;;;17.49;75.21;64811.63;5090819;28;20200;-53
2023/09/30 00:43:03;;;;;;;10.32;5.13;;;;;;;17.50;76.48;64807.63;5090894;28;20208;-54
2023/09/30 00:45:31;;;;;;;14.98;5.25;;;;;;;17.50;77.02;64812.72;5090892;28;20192;-52
2023/09/30 00:47:56;;;;;;;14.88;5.50;;;;;;;17.53;76.76;64815.50;5081552;22;20224;-51
2023/09/30 00:50:22;;;;;;;7.85;5.20;;;;;;;17.59;74.71;64822.09;5069336;28;20239;-51
2023/09/30 00:52:49;;;;;;;8.73;4.47;;;;;;;17.53;76.14;64816.03;5070261;28;20231;-52
2023/09/30 00:55:16;;;;;;;12.25;5.55;;;;;;;17.50;76.59;64810.19;5069351;28;20201;-51
2023/09/30 00:57:42;;;;;;;12.88;5.18;;;;;;;17.54;76.33;64816.59;5070659;28;20204;-55
2023/09/30 01:00:12;;;;;;;15.43;5.43;;;;;;;17.51;76.49;64810.75;5070384;28;20191;-51
2023/09/30 01:02:44;;;;;;;13.75;5.15;;;;;;;17.50;75.45;64810.19;5070735;28;20209;-51
2023/09/30 01:05:09;;;;;;;7.70;4.60;;;;;;;17.48;75.14;64807.97;5070513;28;20196;-51
2023/09/30 01:07:36;;;;;;;8.13;5.05;;;;;;;17.35;76.67;64795.63;5070586;28;20592;-52
2023/09/30 01:10:03;;;;;;;9.25;4.70;;;;;;;17.33;75.46;64790.88;5069186;28;20696;-51
2023/09/30 01:12:28;;;;;;;12.40;5.10;;;;;;;17.42;73.67;64803.91;5068934;28;20349;-51
2023/09/30 01:14:59;;;;;;;12.43;4.82;;;;;;;17.42;74.96;64800.78;5068964;28;20207;-51
2023/09/30 01:17:25;;;;;;;16.85;5.57;;;;;;;17.46;72.25;64807.75;5070015;28;20713;-52
2023/09/30 01:19:52;;;;;;;12.93;5.20;;;;;;;17.45;72.49;64804.66;5070169;28;20209;-52
2023/09/30 01:22:17;;;;;;;11.32;5.15;;;;;;;17.46;73.13;64805.19;5070696;28;20209;-52
2023/09/30 01:24:47;;;;;;;7.80;4.40;;;;;;;17.48;73.98;64809.94;5069985;28;20654;-51
2023/09/30 01:27:13;;;;;;;8.50;5.40;;;;;;;17.48;73.22;64807.97;5069144;28;20217;-52
2023/09/30 01:29:38;;;;;;;11.63;5.03;;;;;;;17.37;72.44;64797.84;5070013;28;20242;-51
2023/09/30 01:32:09;;;;;;;9.77;5.55;;;;;;;17.44;72.87;64803.00;5068680;28;20215;-51
2023/09/30 01:34:35;;;;;;;8.88;5.68;;;;;;;17.45;72.80;64807.19;5069912;28;20200;-51
2023/09/30 01:37:01;;;;;;;13.23;4.70;;;;;;;17.40;74.18;64801.69;5069934;28;20216;-51
2023/09/30 01:39:27;;;;;;;10.98;5.22;;;;;;;17.42;74.58;64801.34;5069809;28;20599;-51
2023/09/30 01:41:53;;;;;;;7.97;4.95;;;;;;;17.66;73.41;64827.25;5070203;28;20588;-54
2023/09/30 01:44:19;;;;;;;10.20;5.13;;;;;;;17.65;74.72;64826.16;5072524;28;20239;-51
2023/09/30 01:46:45;;;;;;;10.35;4.95;;;;;;;17.63;74.59;64823.97;5073686;28;20240;-51
2023/09/30 01:49:10;;;;;;;11.55;5.03;;;;;;;17.48;75.59;64807.97;5073330;28;20575;-50
2023/09/30 01:51:36;;;;;;;5.97;4.85;;;;;;;17.53;75.29;64812.94;5073546;28;20223;-51
2023/09/30 01:54:01;;;;;;;8.15;5.05;;;;;;;17.48;74.71;64810.50;5071850;28;20193;-51
2023/09/30 01:56:27;;;;;;;6.85;5.10;;;;;;;17.24;76.28;64780.97;5073103;28;20213;-52
2023/09/30 01:58:52;;;;;;;16.67;4.90;;;;;;;17.16;74.69;64774.69;5073125;28;20209;-54
2023/09/30 02:01:18;;;;;;;7.75;5.05;;;;;;;17.22;72.85;64778.75;5073095;28;20262;-52
2023/09/30 02:03:43;;;;;;;12.43;4.38;;;;;;;17.19;73.65;64778.00;5073318;28;20197;-51
2023/09/30 02:06:10;;;;;;;10.20;5.00;;;;;;;17.08;72.98;64766.44;5073252;28;20568;-55
2023/09/30 02:08:36;;;;;;;11.55;4.15;;;;;;;17.18;71.54;64776.91;5072877;28;20752;-51
2023/09/30 02:11:02;;;;;;;11.00;4.60;;;;;;;17.12;71.93;64768.28;5071034;28;20308;-51
2023/09/30 02:13:28;;;;;;;10.55;4.80;;;;;;;17.02;72.15;64756.72;5072420;28;20201;-51
2023/09/30 02:15:55;;;;;;;10.35;5.40;;;;;;;16.98;73.52;64752.88;5071834;28;20220;-54
2023/09/30 02:18:21;;;;;;;7.82;4.22;;;;;;;17.07;75.41;64759.69;5072797;28;20236;-54
2023/09/30 02:20:47;;;;;;;7.47;5.13;;;;;;;17.08;73.75;64765.88;5072843;28;20239;-53
2023/09/30 02:23:12;;;;;;;12.73;5.30;;;;;;;17.11;74.27;64769.19;5072584;28;20201;-53
2023/09/30 02:25:39;;;;;;;6.25;4.13;;;;;;;17.08;74.56;64760.78;5072680;28;20635;-53
2023/09/30 02:28:06;;;;;;;10.50;4.43;;;;;;;17.20;74.79;64779.66;5072895;28;20209;-53
2023/09/30 02:30:32;;;;;;;9.23;4.30;;;;;;;17.23;73.76;64782.94;5072677;28;20287;-53
2023/09/30 02:32:57;;;;;;;10.95;4.47;;;;;;;17.11;74.62;64764.63;5072646;28;20338;-53
2023/09/30 02:35:24;;;;;;;13.02;4.35;;;;;;;17.21;74.81;64780.22;5072695;28;20193;-54
2023/09/30 02:37:51;;;;;;;9.10;5.05;;;;;;;17.17;75.43;64773.25;5070989;28;20224;-53
2023/09/30 02:40:18;;;;;;;7.93;4.72;;;;;;;17.01;76.67;64755.63;5071505;28;20288;-53
2023/09/30 02:42:43;;;;;;;8.70;4.10;;;;;;;16.92;77.26;64745.72;5072673;28;20209;-58
2023/09/30 02:45:11;;;;;;;9.70;4.68;;;;;;;16.96;77.50;64753.22;5072485;28;20234;-54
2023/09/30 02:47:38;;;;;;;8.45;4.88;;;;;;;17.01;77.64;64753.09;5072244;28;20216;-55
2023/09/30 02:50:11;;;;;;;7.05;4.75;;;;;;;16.91;78.10;64747.16;5072291;28;20262;-54
2023/09/30 02:52:40;;;;;;;7.63;4.80;;;;;;;16.90;78.35;64744.06;5072668;28;20266;-55
2023/09/30 02:55:09;;;;;;;8.85;4.90;;;;;;;16.89;78.70;64744.97;5071482;28;20205;-54
2023/09/30 02:57:35;;;;;;;11.13;4.95;;;;;;;16.84;79.71;64737.44;5072885;28;20219;-54
2023/09/30 03:00:12;;;;;;;10.10;4.43;;;;;;;16.83;80.06;64738.34;5072303;28;20217;-55
2023/09/30 03:02:37;;;;;;;7.35;4.88;;;;;;;16.72;81.12;64727.31;5072234;28;20288;-55
2023/09/30 03:05:03;;;;;;;10.98;5.32;;;;;;;16.68;81.86;64722.38;5072222;28;20239;-55
2023/09/30 03:07:30;;;;;;;12.40;5.22;;;;;;;16.63;82.49;64714.31;5072303;28;20605;-55
2023/09/30 03:09:55;;;;;;;8.82;4.88;;;;;;;16.58;81.98;64709.34;5072237;28;20209;-54
2023/09/30 03:12:21;;;;;;;10.32;4.90;;;;;;;16.56;83.67;64709.69;5071945;28;20273;-53
2023/09/30 03:14:46;;;;;;;6.85;4.93;;;;;;;16.51;84.79;64703.66;5072051;28;20271;-53
2023/09/30 03:17:12;;;;;;;6.38;5.05;;;;;;;16.58;84.70;64711.91;5072068;28;20215;-53
2023/09/30 03:19:38;;;;;;;8.38;4.88;;;;;;;16.57;84.31;64708.28;5071794;28;20598;-55
2023/09/30 03:22:04;;;;;;;8.07;4.65;;;;;;;16.51;84.77;64701.66;5070585;28;20216;-54
2023/09/30 03:24:30;;;;;;;10.13;5.88;;;;;;;16.56;84.81;64706.63;5072088;28;20204;-54
2023/09/30 03:26:55;;;;;;;12.13;5.68;;;;;;;16.60;85.34;64714.09;5071934;28;20572;-54
2023/09/30 03:29:28;;;;;;;8.60;6.03;;;;;;;16.62;84.36;64716.31;5071821;28;20696;-52
2023/09/30 03:31:53;;;;;;;9.82;5.13;;;;;;;16.41;86.43;64695.72;5071768;28;20225;-52
2023/09/30 03:34:20;;;;;;;8.48;5.57;;;;;;;16.56;85.17;64706.63;5071568;28;20192;-54
2023/09/30 03:36:45;;;;;;;11.85;5.15;;;;;;;16.37;85.64;64688.78;5071829;28;20225;-55
2023/09/30 03:39:14;;;;;;;9.75;6.18;;;;;;;16.29;86.88;64676.88;5071659;28;20212;-54
2023/09/30 03:41:40;;;;;;;9.68;5.07;;;;;;;16.25;87.89;64675.00;5070423;28;20274;-56
2023/09/30 03:44:06;;;;;;;10.20;5.57;;;;;;;16.21;86.99;64671.16;5071475;28;20208;-54
2023/09/30 03:46:32;;;;;;;14.32;6.35;;;;;;;16.26;86.64;64676.13;5071589;28;20244;-54
2023/09/30 03:48:57;;;;;;;12.50;5.43;;;;;;;16.31;85.70;64679.63;5071794;28;20233;-53
2023/09/30 03:51:25;;;;;;;10.15;5.78;;;;;;;16.42;85.03;64693.72;5071662;28;20725;-54
2023/09/30 03:53:50;;;;;;;10.70;5.45;;;;;;;16.42;85.43;64691.72;5070175;28;20200;-55
2023/09/30 03:56:18;;;;;;;10.60;5.80;;;;;;;16.37;85.31;64690.75;5070183;28;20386;-54
2023/09/30 03:58:48;;;;;;;13.68;5.72;;;;;;;16.23;85.68;64670.81;5071373;28;20213;-54
2023/09/30 04:01:13;;;;;;;14.10;5.57;;;;;;;15.91;87.73;64636.16;5070191;28;20258;-53
2023/09/30 04:03:40;;;;;;;10.45;5.38;;;;;;;16.12;86.46;64660.72;5069932;28;20201;-54
2023/09/30 04:06:09;;;;;;;11.35;5.72;;;;;;;15.90;87.64;64637.03;5071101;28;20300;-53
2023/09/30 04:08:35;;;;;;;7.80;5.50;;;;;;;15.87;88.24;64634.31;5069837;28;20204;-52
2023/09/30 04:11:02;;;;;;;10.55;5.30;;;;;;;15.84;88.33;64627.88;5071277;28;20666;-53
2023/09/30 04:13:29;;;;;;;7.22;5.00;;;;;;;15.70;89.23;64615.59;5071068;28;20200;-54
2023/09/30 04:15:56;;;;;;;8.45;5.63;;;;;;;15.87;88.01;64631.75;5071241;28;20212;-53
2023/09/30 04:18:22;;;;;;;9.40;4.63;;;;;;;15.79;88.94;64624.94;5069454;28;20220;-53
2023/09/30 04:20:48;;;;;;;6.80;4.93;;;;;;;15.73;89.32;64618.91;5069653;28;20299;-53
2023/09/30 04:23:15;;;;;;;7.00;5.35;;;;;;;15.38;91.38;64577.28;5070926;28;20211;-54
2023/09/30 04:25:43;;;;;;;8.48;5.10;;;;;;;15.43;91.75;64585.88;5069509;28;20253;-53
2023/09/30 04:28:08;;;;;;;9.32;5.28;;;;;;;15.38;93.21;64577.28;5070911;28;20217;-53
2023/09/30 04:30:34;;;;;;;13.43;5.05;;;;;;;15.48;91.75;64591.38;5069715;28;20571;-54
2023/09/30 04:33:00;;;;;;;10.50;5.55;;;;;;;15.40;92.06;64582.56;5070790;28;20762;-53
2023/09/30 04:35:26;;;;;;;11.88;5.50;;;;;;;15.38;92.41;64577.81;5070588;28;20283;-52
2023/09/30 04:37:52;;;;;;;9.48;5.35;;;;;;;15.31;93.47;64572.66;5070452;28;20331;-53
2023/09/30 04:40:21;;;;;;;11.68;5.07;;;;;;;15.37;92.31;64573.66;5070744;28;20237;-55
2023/09/30 04:42:49;;;;;;;9.45;5.45;;;;;;;15.50;91.08;64593.03;5070332;28;20209;-54
2023/09/30 04:45:16;;;;;;;10.85;5.75;;;;;;;15.67;90.59;64611.75;5070675;28;20203;-53
2023/09/30 04:47:44;;;;;;;7.68;5.00;;;;;;;15.65;90.19;64607.00;5070415;28;20220;-54
2023/09/30 04:50:11;;;;;;;10.73;5.70;;;;;;;15.79;89.33;64622.41;5069281;28;20674;-54
2023/09/30 04:52:38;;;;;;;9.00;5.45;;;;;;;15.58;90.65;64599.28;5070557;28;20212;-53
2023/09/30 04:55:04;;;;;;;10.93;4.75;;;;;;;15.43;92.36;64585.34;5070439;28;20197;-53
2023/09/30 04:57:31;;;;;;;9.10;5.32;;;;;;;15.53;92.45;64596.34;5070283;28;20282;-54
2023/09/30 04:59:57;;;;;;;13.85;5.72;;;;;;;15.54;88.53;64594.88;5070393;28;20209;-52
2023/09/30 05:02:24;;;;;;;8.15;5.30;;;;;;;15.33;89.88;64572.31;5070169;28;20282;-54
2023/09/30 05:04:50;;;;;;;11.50;4.95;;;;;;;15.36;90.87;64572.53;5070229;28;20208;-54
2023/09/30 05:07:16;;;;;;;12.15;5.93;;;;;;;15.48;90.86;64588.28;5070657;28;20590;-59
2023/09/30 05:09:42;;;;;;;10.73;6.10;;;;;;;15.73;89.20;64616.34;5070361;28;20227;-54
2023/09/30 05:12:08;;;;;;;9.75;5.40;;;;;;;15.84;86.75;64630.44;5070366;28;20217;-53
2023/09/30 05:14:33;;;;;;;14.05;5.82;;;;;;;15.74;87.52;64616.88;5070091;28;20177;-55
2023/09/30 05:16:59;;;;;;;9.68;4.68;;;;;;;15.72;87.81;64615.25;5070262;28;20216;-54
2023/09/30 05:19:24;;;;;;;10.52;5.68;;;;;;;15.87;87.69;64631.19;5073050;28;20205;-53
2023/09/30 05:21:50;;;;;;;9.95;5.45;;;;;;;15.81;87.33;64627.13;5073813;28;20212;-54
2023/09/30 05:24:18;;;;;;;12.32;5.82;;;;;;;15.89;86.61;64633.97;5073845;28;20200;-54
2023/09/30 05:26:44;;;;;;;9.27;5.72;;;;;;;15.78;87.84;64619.31;5073486;28;20361;-53
2023/09/30 05:29:10;;;;;;;12.40;5.88;;;;;;;15.68;89.60;64610.28;5073741;28;20217;-53
2023/09/30 05:31:36;;;;;;;16.08;6.13;;;;;;;15.71;89.74;64613.59;5073722;28;20223;-54
2023/09/30 05:34:02;;;;;;;12.82;5.72;;;;;;;15.70;90.25;64612.50;5073611;28;20197;-54
2023/09/30 05:36:29;;;;;;;9.05;5.53;;;;;;;15.75;90.10;64621.09;5073186;28;20217;-54
2023/09/30 05:38:55;;;;;;;13.38;5.80;;;;;;;15.79;89.25;64624.94;5073391;28;20277;-54
2023/09/30 05:41:21;;;;;;;8.85;6.30;;;;;;;15.82;89.38;64625.69;5073456;28;20223;-55
2023/09/30 05:43:47;;;;;;;14.00;7.30;;;;;;;15.71;88.39;64614.16;5073533;28;20181;-54
2023/09/30 05:46:14;;;;;;;15.60;6.90;;;;;;;15.63;88.89;64605.34;5071963;28;20211;-53
2023/09/30 05:48:40;;;;;;;13.82;7.35;;;;;;;15.57;88.88;64598.75;5073411;28;20199;-54
2023/09/30 05:51:06;;;;;;;15.90;6.22;;;;;;;15.54;89.13;64597.97;5073316;28;20204;-54
2023/09/30 05:53:32;;;;;;;15.80;5.90;;;;;;;15.58;87.48;64602.38;5073223;28;20192;-54
2023/09/30 05:55:59;;;;;;;11.48;6.20;;;;;;;15.74;86.39;64616.88;5071820;28;20208;-53
2023/09/30 05:58:26;;;;;;;8.98;6.30;;;;;;;15.85;86.51;64632.09;5073319;28;20209;-55
2023/09/30 06:00:55;;;;;;;10.77;5.78;;;;;;;15.93;85.62;64637.81;5073148;28;20243;-57
2023/09/30 06:03:21;;;;;;;11.98;6.95;;;;;;;15.92;85.01;64636.69;5072913;28;20212;-55
2023/09/30 06:05:48;;;;;;;12.02;8.05;;;;;;;15.92;84.86;64639.78;5073031;28;20204;-54
2023/09/30 06:08:15;;;;;;;12.23;7.88;;;;;;;15.95;85.10;64642.53;5072775;28;20287;-53
2023/09/30 06:10:43;;;;;;;13.95;8.20;;;;;;;15.98;85.13;64643.28;5054925;28;20185;-54
2023/09/30 06:13:10;;;;;;;14.45;7.13;;;;;;;16.14;83.84;64660.38;5073164;28;20395;-55
2023/09/30 06:15:43;;;;;;;11.63;7.78;;;;;;;16.21;83.56;64671.16;5071506;28;20262;-54
2023/09/30 06:18:12;;;;;;;10.85;8.02;;;;;;;16.30;83.58;64680.53;5072547;28;20208;-58
2023/09/30 06:20:38;;;;;;;19.25;8.40;;;;;;;16.43;82.90;64694.81;5072955;28;20211;-53
2023/09/30 06:23:03;;;;;;;20.95;8.27;;;;;;;16.51;82.35;64704.22;5072658;28;20209;-54
2023/09/30 06:25:30;;;;;;;17.92;8.90;;;;;;;16.51;82.69;64701.09;5072697;28;20229;-54
2023/09/30 06:27:56;;;;;;;16.92;8.45;;;;;;;16.47;83.21;64699.78;5071465;28;20236;-53
2023/09/30 06:30:29;;;;;;;13.35;7.93;;;;;;;16.55;81.98;64706.06;5071379;28;20232;-53
2023/09/30 06:32:54;;;;;;;15.38;9.05;;;;;;;16.56;83.57;64706.63;5072987;28;20219;-54
2023/09/30 06:35:20;;;;;;;12.30;7.18;;;;;;;16.70;81.40;64722.56;5072617;28;20683;-54
2023/09/30 06:37:46;;;;;;;16.63;7.57;;;;;;;16.88;80.73;64741.31;5073210;28;20205;-54
2023/09/30 06:40:12;;;;;;;14.75;6.40;;;;;;;16.92;78.63;64748.81;5072756;28;20213;-53
2023/09/30 06:42:39;;;;;;;13.95;7.20;;;;;;;17.04;77.65;64761.47;5072375;28;20691;-55
2023/09/30 06:45:06;;;;;;;10.85;7.45;;;;;;;17.15;78.47;64771.59;5072350;28;20777;-54
2023/09/30 06:47:33;;;;;;;12.35;6.68;;;;;;;17.26;76.04;64783.72;5072538;28;20242;-55
2023/09/30 06:50:08;;;;;;;14.88;8.13;;;;;;;17.18;74.65;64777.44;5072457;28;20829;-54
2023/09/30 06:52:39;;;;;;;13.68;7.10;;;;;;;17.43;74.92;64799.88;5072669;28;20208;-54
2023/09/30 06:55:06;;;;;;;13.48;6.57;;;;;;;18.09;76.78;64874.69;5072429;28;20201;-53
2023/09/30 06:57:36;;;;;;;8.73;6.38;;;;;;;18.16;72.56;64884.41;5072247;28;20205;-54
2023/09/30 07:00:08;;;;;;;14.27;6.75;;;;;;;18.19;70.53;64885.69;5072816;28;20212;-54
2023/09/30 07:02:34;;;;;;;13.40;6.60;;;;;;;18.20;69.66;64886.25;5072623;28;20193;-54
2023/09/30 07:04:59;;;;;;;12.60;6.40;;;;;;;18.34;68.95;64904.25;5072166;28;20666;-55
2023/09/30 07:07:25;;;;;;;10.38;6.03;;;;;;;18.35;69.22;64900.78;5072533;28;20209;-54
2023/09/30 07:09:51;;;;;;;13.65;6.30;;;;;;;18.28;66.93;64895.09;5070749;28;20201;-54
2023/09/30 07:12:16;;;;;;;10.57;5.43;;;;;;;18.36;66.04;64904.44;5072333;28;20290;-55
2023/09/30 07:14:42;;;;;;;8.27;4.78;;;;;;;18.65;66.30;64935.91;5072130;28;20662;-54
2023/09/30 07:17:07;;;;;;;12.48;5.72;;;;;;;18.76;65.31;64944.94;5070785;28;20239;-55
2023/09/30 07:19:33;;;;;;;9.80;5.70;;;;;;;18.93;65.04;64966.78;5071877;28;20600;-55
2023/09/30 07:21:58;;;;;;;19.52;6.25;;;;;;;19.21;63.17;64997.13;5072376;28;20576;-57
2023/09/30 07:24:24;;;;;;;11.88;6.13;;;;;;;19.34;63.08;65008.97;5072024;28;20283;-51
2023/09/30 07:26:49;;;;;;;12.68;5.32;;;;;;;19.36;62.00;65013.72;5072129;28;20250;-54
2023/09/30 07:29:16;;;;;;;11.77;5.70;;;;;;;19.55;64.32;65034.72;5071911;28;20220;-52
2023/09/30 07:31:41;;;;;;;8.40;5.10;;;;;;;19.89;61.17;65072.25;5071952;28;20216;-52
2023/09/30 07:34:06;;;;;;;12.52;5.30;;;;;;;19.76;61.76;65055.34;5070490;28;20208;-50
2023/09/30 07:36:32;;;;;;;8.75;5.03;;;;;;;19.81;60.11;65060.88;5071762;28;20200;-51
2023/09/30 07:38:57;;;;;;;15.82;5.20;;;;;;;19.88;59.51;65073.16;5071684;28;20230;-51
2023/09/30 07:41:23;;;;;;;12.48;5.38;;;;;;;20.07;60.66;65089.59;5070877;28;20220;-54
2023/09/30 07:43:49;;;;;;;13.52;5.35;;;;;;;20.09;59.19;65096.91;5071701;28;20204;-51
2023/09/30 07:46:15;;;;;;;12.18;4.88;;;;;;;20.33;58.15;65117.78;5071708;28;20236;-51
2023/09/30 07:48:41;;;;;;;15.45;5.53;;;;;;;20.22;57.06;65105.59;5070048;28;20205;-50
2023/09/30 07:51:12;;;;;;;13.15;4.95;;;;;;;21.27;72.33;65221.13;5071563;28;20203;-51
2023/09/30 07:53:39;;;;;;;7.80;4.50;;;;;;;21.92;72.80;65297.66;5071577;28;20267;-50
2023/09/30 07:56:06;;;;;;;13.55;4.20;;;;;;;21.33;54.79;65229.81;5071363;28;20196;-50
2023/09/30 07:58:32;;;;;;;14.30;5.68;;;;;;;20.88;54.04;65178.00;5070116;28;20216;-52
2023/09/30 08:00:57;;;;;;;12.05;5.03;;;;;;;20.52;54.04;65138.75;5071535;28;20258;-51
2023/09/30 08:03:24;;;;;;;7.15;4.63;;;;;;;20.63;54.62;65150.38;5070003;28;20204;-50
2023/09/30 08:05:50;;;;;;;9.70;4.40;;;;;;;20.59;54.48;65148.50;5071482;28;20619;-51
2023/09/30 08:08:16;;;;;;;8.57;4.85;;;;;;;20.57;56.33;65144.28;5071195;28;20230;-51
2023/09/30 08:10:42;;;;;;;11.43;4.40;;;;;;;20.86;54.92;65178.34;5071213;28;20197;-51
2023/09/30 08:13:09;;;;;;;9.68;4.70;;;;;;;21.00;52.52;65190.72;5069748;28;20285;-53
2023/09/30 08:15:35;;;;;;;12.75;4.95;;;;;;;21.02;53.04;65193.50;5069712;28;20200;-54
2023/09/30 08:18:02;;;;;;;12.63;5.20;;;;;;;21.07;53.32;65198.47;5070858;28;20204;-53
2023/09/30 08:20:28;;;;;;;17.83;4.90;;;;;;;21.14;54.74;65209.34;5069634;28;20311;-54
2023/09/30 08:22:53;;;;;;;7.00;4.65;;;;;;;21.49;56.05;65248.03;5071051;28;20658;-54
2023/09/30 08:25:19;;;;;;;7.68;4.47;;;;;;;21.45;55.00;65243.06;5071181;28;20227;-54
2023/09/30 08:27:49;;;;;;;11.85;4.88;;;;;;;21.71;53.04;65269.81;5070768;28;20208;-54
2023/09/30 08:30:16;;;;;;;8.73;4.55;;;;;;;21.71;49.31;65269.25;5069559;28;20183;-55
2023/09/30 08:32:42;;;;;;;13.30;4.82;;;;;;;21.94;51.00;65291.63;5069791;28;20223;-55
2023/09/30 08:35:08;;;;;;;12.02;5.05;;;;;;;21.75;48.44;65273.69;5071036;28;20201;-54
2023/09/30 08:37:33;;;;;;;9.60;4.18;;;;;;;21.97;47.71;65297.50;5071077;28;20271;-56
2023/09/30 08:39:59;;;;;;;11.43;5.28;;;;;;;22.38;47.33;65346.00;5070583;28;20251;-55
2023/09/30 08:42:31;;;;;;;15.13;5.32;;;;;;;22.39;48.31;65343.97;5070764;28;20213;-54
2023/09/30 08:44:56;;;;;;;8.77;4.68;;;;;;;22.31;45.71;65335.13;5070717;28;20204;-51
2023/09/30 08:47:27;;;;;;;16.10;4.82;;;;;;;22.34;45.13;65341.56;5070509;28;20220;-52
2023/09/30 08:49:56;;;;;;;10.55;5.03;;;;;;;22.52;43.76;65361.50;5069193;28;20208;-52
2023/09/30 08:52:24;;;;;;;11.65;5.20;;;;;;;22.88;44.21;65398.25;5069761;28;20220;-53
2023/09/30 08:54:50;;;;;;;12.65;5.15;;;;;;;23.22;45.75;65435.38;5068933;28;20212;-53
2023/09/30 08:57:19;;;;;;;10.45;5.55;;;;;;;23.60;43.89;65477.50;5070630;28;20342;-52
2023/09/30 08:59:49;;;;;;;7.32;5.65;;;;;;;23.81;44.85;65500.22;5070409;28;20235;-53
2023/09/30 09:02:16;;;;;;;12.10;6.28;;;;;;;24.07;42.66;65529.06;5068873;28;20560;-52
2023/09/30 09:04:43;;;;;;;12.18;6.32;;;;;;;24.35;41.25;65559.53;5070295;28;20212;-54
2023/09/30 09:07:10;;;;;;;15.27;6.70;;;;;;;24.56;42.23;65582.84;5070266;28;20219;-55
2023/09/30 09:09:36;;;;;;;15.02;6.35;;;;;;;24.80;43.02;65609.47;5070301;28;20196;-58
2023/09/30 09:12:02;;;;;;;12.15;6.07;;;;;;;24.96;42.80;65627.22;5070231;28;20261;-53
2023/09/30 09:14:42;;;;;;;8.90;6.22;;;;;;;24.84;39.34;65614.47;5070270;28;20200;-53
2023/09/30 09:17:09;;;;;;;13.80;6.55;;;;;;;24.89;38.39;65620.00;5070441;28;20204;-53
2023/09/30 09:19:34;;;;;;;13.07;7.00;;;;;;;24.82;39.65;65614.84;5069990;28;20271;-54
2023/09/30 09:22:04;;;;;;;9.32;6.45;;;;;;;25.52;38.72;65686.25;5069871;28;20205;-53
2023/09/30 09:24:32;;;;;;;8.73;6.00;;;;;;;25.75;38.32;65712.38;5070070;28;20205;-53
2023/09/30 09:27:08;;;;;;;9.80;5.80;;;;;;;25.71;36.50;65710.47;5070277;28;20204;-53
2023/09/30 09:29:38;;;;;;;10.65;5.95;;;;;;;25.94;35.62;65735.47;5070047;28;20698;-53
2023/09/30 09:32:08;;;;;;;11.50;5.65;;;;;;;25.83;34.83;65722.72;5069840;28;20201;-54
2023/09/30 09:34:33;;;;;;;10.57;6.07;;;;;;;25.94;37.04;65730.31;5068782;28;20258;-52
2023/09/30 09:36:59;;;;;;;10.48;5.97;;;;;;;25.86;36.75;65720.88;5069739;28;20224;-57
2023/09/30 09:39:31;;;;;;;11.70;6.00;;;;;;;25.74;37.34;65708.09;5069904;28;20216;-53
2023/09/30 09:41:57;;;;;;;8.95;5.65;;;;;;;25.82;36.55;65722.16;5068550;28;20232;-53
2023/09/30 09:44:28;;;;;;;11.38;5.45;;;;;;;26.10;33.91;65750.69;5069802;28;20200;-53
2023/09/30 09:46:54;;;;;;;12.10;6.20;;;;;;;26.23;34.89;65767.16;5070295;28;20208;-54
2023/09/30 09:49:20;;;;;;;13.15;5.53;;;;;;;26.58;34.76;65804.00;5069705;28;20675;-52
2023/09/30 09:51:48;;;;;;;12.75;5.70;;;;;;;26.82;34.79;65832.72;5068483;28;20216;-54
2023/09/30 09:54:15;;;;;;;12.23;5.80;;;;;;;26.21;35.37;65762.34;5069734;28;20200;-52
2023/09/30 09:56:45;;;;;;;9.70;4.82;;;;;;;26.80;34.68;65829.94;5068346;28;20741;-53
2023/09/30 09:59:12;;;;;;;14.43;4.72;;;;;;;27.22;34.53;65874.59;5069713;28;20306;-57
2023/09/30 10:01:40;;;;;;;8.60;4.45;;;;;;;27.55;34.01;65910.75;5070114;28;20247;-55
2023/09/30 10:04:06;;;;;;;6.88;4.68;;;;;;;27.66;34.68;65925.00;5070770;28;20233;-55
2023/09/30 10:06:38;;;;;;;13.43;5.57;;;;;;;27.41;33.00;65895.19;5073424;28;20205;-53
2023/09/30 10:09:08;;;;;;;9.18;4.78;;;;;;;27.18;32.93;65869.59;5074045;28;20197;-53
2023/09/30 10:11:35;;;;;;;9.05;4.40;;;;;;;26.55;32.84;65805.84;5071978;28;20223;-53
2023/09/30 10:14:03;;;;;;;12.30;4.80;;;;;;;26.40;33.77;65784.00;5073206;28;20303;-53
2023/09/30 10:16:37;;;;;;;8.80;5.10;;;;;;;27.26;32.29;65881.06;5073170;28;20277;-52
2023/09/30 10:19:17;;;;;;;9.23;4.82;;;;;;;27.49;33.36;65904.09;5073043;28;20215;-53
2023/09/30 10:22:21;;;;;;;10.63;4.30;;;;;;;27.25;32.85;65877.38;5073323;28;20223;-52
2023/09/30 10:24:52;;;;;;;12.65;4.35;;;;;;;27.00;32.25;65849.59;5071993;28;20212;-53
2023/09/30 10:27:24;;;;;;;12.43;4.82;;;;;;;27.82;31.47;65940.78;5073365;28;20215;-52
2023/09/30 10:30:18;;;;;;;7.45;4.22;;;;;;;27.62;31.50;65917.97;5072885;28;20306;-52
2023/09/30 10:32:59;;;;;;;9.35;3.90;;;;;;;27.82;31.42;65942.81;5072692;28;20217;-53
2023/09/30 10:35:27;;;;;;;5.53;4.30;;;;;;;27.98;31.80;65961.19;5072801;28;20661;-52
2023/09/30 10:38:23;;;;;;;6.05;3.50;;;;;;;28.24;31.32;65987.50;5072758;28;20224;-53
2023/09/30 10:40:50;;;;;;;9.30;4.15;;;;;;;28.26;30.69;65991.22;5084932;22;20255;-52
2023/09/30 10:43:35;;;;;;;7.47;3.80;;;;;;;27.42;31.00;65896.28;5092842;28;20286;-52
2023/09/30 10:46:01;;;;;;;7.47;3.95;;;;;;;27.42;31.37;65899.44;5092729;28;20208;-53
2023/09/30 10:48:38;;;;;;;7.95;3.40;;;;;;;27.77;32.06;65934.66;5092789;28;20218;-55
2023/09/30 10:51:12;;;;;;;6.10;3.88;;;;;;;27.55;31.39;65910.75;5093127;28;20220;-52
2023/09/30 10:53:52;;;;;;;5.43;3.13;;;;;;;27.97;30.76;65960.09;5092531;28;20226;-52
2023/09/30 10:56:19;;;;;;;9.05;3.72;;;;;;;28.40;29.50;66004.78;5092923;28;20211;-52
2023/09/30 10:58:49;;;;;;;8.30;3.72;;;;;;;28.93;29.60;66063.22;5092824;28;20212;-55
2023/09/30 11:01:19;;;;;;;4.95;3.03;;;;;;;28.52;29.94;66020.72;5092727;28;20705;-55
2023/09/30 11:03:46;;;;;;;8.63;3.38;;;;;;;27.58;30.12;65916.69;5092728;28;20200;-51
2023/09/30 11:06:17;;;;;;;10.65;4.15;;;;;;;28.45;30.24;66010.34;5092469;28;20215;-53
2023/09/30 11:08:56;;;;;;;8.50;3.60;;;;;;;28.51;29.28;66019.59;5092821;28;20251;-52
2023/09/30 11:11:42;;;;;;;4.68;3.33;;;;;;;28.27;28.62;65992.91;5092777;28;20215;-53
2023/09/30 11:14:17;;;;;;;4.35;3.08;;;;;;;28.86;29.09;66058.59;5092377;28;20203;-52
2023/09/30 11:16:43;;;;;;;6.18;3.33;;;;;;;29.55;29.10;66131.72;5091831;28;20216;-52
2023/09/30 11:19:09;;;;;;;5.00;3.33;;;;;;;29.24;27.77;66099.81;5092520;28;20219;-52
2023/09/30 11:21:36;;;;;;;4.85;3.05;;;;;;;29.27;27.96;66103.69;5092239;28;20215;-53
2023/09/30 11:24:02;;;;;;;9.05;3.75;;;;;;;28.73;27.60;66044.09;5092145;28;20200;-52
2023/09/30 11:26:32;;;;;;;6.63;3.60;;;;;;;29.06;28.25;66077.69;5092142;28;20212;-52
2023/09/30 11:29:05;;;;;;;5.68;3.33;;;;;;;29.10;28.12;66081.59;5092406;28;20274;-52
2023/09/30 11:31:33;;;;;;;8.13;3.88;;;;;;;29.58;28.26;66135.63;5092030;28;20299;-53